Time;durP1;ratioP1;P1;durP2;ratioP2;P2;SDS_P1;SDS_P2;PMS_P1;PMS_P2;Temp;Humidity;BMP_temperature;BMP_pressure;BME280_temperature;BME280_humidity;BME280_pressure;Samples;Min_cycle;Max_cycle;Signal;HPM_P1;HPM_P2
2022/12/19 00:01:58;;;;;;;5.60;5.10;;;21.00;51.40;;;;;;4931566;29;20482;-63
2022/12/19 00:04:27;;;;;;;6.50;5.90;;;21.00;51.30;;;;;;4928613;29;20551;-65
2022/12/19 00:06:58;;;;;;;6.33;5.77;;;21.00;51.40;;;;;;4928506;29;20506;-64
2022/12/19 00:09:26;;;;;;;6.43;5.93;;;21.00;51.40;;;;;;4921367;29;20451;-66
2022/12/19 00:11:55;;;;;;;6.40;5.80;;;21.00;51.40;;;;;;4932387;29;20840;-64
2022/12/19 00:14:24;;;;;;;7.43;6.83;;;21.00;51.40;;;;;;4932510;29;20456;-63
2022/12/19 00:16:53;;;;;;;6.90;6.30;;;21.00;51.40;;;;;;4933439;29;20462;-64
2022/12/19 00:19:21;;;;;;;6.53;5.83;;;21.10;51.40;;;;;;4932392;29;20446;-65
2022/12/19 00:21:49;;;;;;;7.53;6.77;;;21.00;51.40;;;;;;4930393;29;20558;-65
2022/12/19 00:24:18;;;;;;;6.93;6.33;;;21.00;51.40;;;;;;4930846;29;20479;-65
2022/12/19 00:26:49;;;;;;;6.63;6.03;;;21.00;51.30;;;;;;4932215;29;20482;-64
2022/12/19 00:29:17;;;;;;;6.77;6.17;;;21.00;51.30;;;;;;4923911;29;20483;-64
2022/12/19 00:31:47;;;;;;;8.80;6.37;;;21.00;51.30;;;;;;4933198;29;20512;-63
2022/12/19 00:34:15;;;;;;;7.20;6.50;;;21.00;51.20;;;;;;4927452;29;20858;-64
2022/12/19 00:36:43;;;;;;;5.20;4.80;;;21.00;51.30;;;;;;4932218;29;20481;-64
2022/12/19 00:39:11;;;;;;;6.47;5.87;;;21.00;51.30;;;;;;4931280;29;20561;-64
2022/12/19 00:41:40;;;;;;;7.00;6.40;;;21.00;51.30;;;;;;4933367;29;20515;-64
2022/12/19 00:44:12;;;;;;;6.93;6.33;;;21.00;51.20;;;;;;4930904;29;20878;-66
2022/12/19 00:46:41;;;;;;;7.10;6.50;;;21.00;51.20;;;;;;4930132;29;20610;-64
2022/12/19 00:49:15;;;;;;;6.27;5.77;;;21.00;51.10;;;;;;4931943;28;20456;-65
2022/12/19 00:51:43;;;;;;;7.07;6.37;;;21.00;51.10;;;;;;4933466;29;20925;-65
2022/12/19 00:54:11;;;;;;;6.27;5.77;;;21.00;51.10;;;;;;4926996;29;20453;-65
2022/12/19 00:56:40;;;;;;;6.80;6.20;;;21.00;51.10;;;;;;4931835;29;20442;-64
2022/12/19 00:59:09;;;;;;;6.93;6.37;;;21.00;51.10;;;;;;4933207;29;20462;-64
2022/12/19 01:01:40;;;;;;;6.83;6.23;;;21.00;51.10;;;;;;4933389;29;20448;-64
2022/12/19 01:04:12;;;;;;;6.77;6.17;;;21.00;51.10;;;;;;4926714;29;20503;-64
2022/12/19 01:07:00;;;;;;;5.97;5.40;;;21.00;51.10;;;;;;4928152;29;20490;-64
2022/12/19 01:09:32;;;;;;;6.83;6.07;;;21.00;51.10;;;;;;4925900;29;20827;-64
2022/12/19 01:14:53;;;;;;;6.27;5.70;;;21.00;51.00;;;;;;4905693;29;20476;-64
2022/12/19 01:17:33;;;;;;;5.90;5.40;;;21.00;51.00;;;;;;4933922;29;20859;-64
2022/12/19 01:20:12;;;;;;;7.23;6.57;;;21.00;51.00;;;;;;4930121;29;20459;-63
2022/12/19 01:22:42;;;;;;;6.40;5.80;;;21.00;51.00;;;;;;4931716;29;20457;-63
2022/12/19 01:25:10;;;;;;;6.80;6.20;;;21.00;51.00;;;;;;4930036;29;20879;-66
2022/12/19 01:27:39;;;;;;;7.53;6.90;;;21.00;51.00;;;;;;4931327;29;20548;-64
2022/12/19 01:30:08;;;;;;;6.90;6.27;;;21.00;51.00;;;;;;4933944;29;20479;-64
2022/12/19 01:32:38;;;;;;;6.47;5.80;;;21.00;50.90;;;;;;4933790;29;20486;-64
2022/12/19 01:35:07;;;;;;;7.60;7.00;;;21.00;50.90;;;;;;4933540;29;20794;-65
2022/12/19 01:37:50;;;;;;;7.17;6.47;;;21.00;50.90;;;;;;4932650;29;20450;-64
2022/12/19 01:40:18;;;;;;;7.70;6.93;;;21.00;50.90;;;;;;4934064;29;20494;-64
2022/12/19 01:42:48;;;;;;;6.57;5.97;;;21.00;50.90;;;;;;4933569;29;20497;-64
2022/12/19 01:45:31;;;;;;;7.17;6.50;;;21.00;50.90;;;;;;4932546;29;20459;-64
2022/12/19 01:48:11;;;;;;;7.27;6.67;;;21.00;50.90;;;;;;4930619;29;20539;-64
2022/12/19 01:50:46;;;;;;;6.93;6.33;;;21.00;50.90;;;;;;4932462;29;20945;-64
2022/12/19 01:53:35;;;;;;;6.43;5.93;;;21.00;50.90;;;;;;4930651;29;20541;-64
2022/12/19 01:56:17;;;;;;;6.80;6.20;;;21.00;50.90;;;;;;4924257;29;20821;-65
2022/12/19 01:58:47;;;;;;;7.07;6.43;;;21.00;51.00;;;;;;4927562;29;20471;-64
2022/12/19 02:01:16;;;;;;;7.43;6.63;;;21.00;51.00;;;;;;4928951;29;20460;-64
2022/12/19 02:03:58;;;;;;;6.90;6.27;;;21.00;51.00;;;;;;4923371;29;20522;-64
2022/12/19 02:06:27;;;;;;;7.10;6.50;;;21.00;51.00;;;;;;4926015;29;20474;-64
2022/12/19 02:08:57;;;;;;;6.77;6.17;;;21.00;51.00;;;;;;4926138;29;20578;-64
2022/12/19 02:11:25;;;;;;;6.83;6.27;;;21.00;51.00;;;;;;4933773;29;20902;-64
2022/12/19 02:13:53;;;;;;;6.77;6.17;;;21.00;51.00;;;;;;4931124;29;20473;-65
2022/12/19 02:16:31;;;;;;;7.30;6.70;;;21.00;51.10;;;;;;4930722;29;20521;-65
2022/12/19 02:19:14;;;;;;;6.13;5.63;;;21.00;51.10;;;;;;4932556;29;20482;-64
2022/12/19 02:21:52;;;;;;;6.07;5.53;;;21.00;51.10;;;;;;4935238;29;20488;-65
2022/12/19 02:24:59;;;;;;;6.70;6.20;;;21.10;51.10;;;;;;4932220;29;20459;-64
2022/12/19 02:27:56;;;;;;;6.43;5.83;;;21.10;51.00;;;;;;4932816;29;20514;-64
2022/12/19 02:30:47;;;;;;;6.60;6.03;;;21.00;51.00;;;;;;4931039;29;20811;-64
2022/12/19 02:33:19;;;;;;;6.20;5.70;;;21.00;51.00;;;;;;4928914;29;20955;-65
2022/12/19 02:35:53;;;;;;;6.53;6.00;;;21.00;51.00;;;;;;4929255;29;20459;-64
2022/12/19 02:38:30;;;;;;;7.20;6.50;;;21.10;50.90;;;;;;4933338;29;20471;-64
2022/12/19 02:41:04;;;;;;;6.40;5.90;;;21.00;50.90;;;;;;4935143;29;20476;-64
2022/12/19 02:43:36;;;;;;;7.30;6.70;;;21.10;50.90;;;;;;4933313;29;20598;-64
2022/12/19 02:46:09;;;;;;;7.33;6.63;;;21.10;50.80;;;;;;4930488;29;20470;-66
2022/12/19 02:48:39;;;;;;;7.20;6.50;;;21.10;50.80;;;;;;4946237;28;20566;-66
2022/12/19 02:51:08;;;;;;;6.50;5.90;;;21.10;50.80;;;;;;4928947;29;20486;-64
2022/12/19 02:53:38;;;;;;;6.60;6.00;;;21.10;50.70;;;;;;4931629;29;20575;-64
2022/12/19 02:56:21;;;;;;;7.90;7.10;;;21.10;50.70;;;;;;4939448;29;20454;-64
2022/12/19 02:59:12;;;;;;;7.50;6.67;;;21.10;50.70;;;;;;4933910;29;20460;-64
2022/12/19 03:01:47;;;;;;;6.40;5.80;;;21.10;50.70;;;;;;4936851;29;20680;-64
2022/12/19 03:04:27;;;;;;;9.20;6.30;;;21.10;50.70;;;;;;4933713;29;20460;-64
2022/12/19 03:07:02;;;;;;;7.73;7.10;;;21.10;50.70;;;;;;4933827;29;21224;-65
2022/12/19 03:09:40;;;;;;;6.00;5.60;;;21.10;50.70;;;;;;4930937;29;20467;-64
2022/12/19 03:12:12;;;;;;;7.00;6.43;;;21.10;50.70;;;;;;4930575;29;20456;-64
2022/12/19 03:14:46;;;;;;;7.10;6.43;;;21.10;50.70;;;;;;4930875;29;20453;-64
2022/12/19 03:17:19;;;;;;;7.30;6.60;;;21.10;50.70;;;;;;4933294;29;20541;-64
2022/12/19 03:19:47;;;;;;;6.60;6.00;;;21.10;50.70;;;;;;4932312;29;20516;-64
2022/12/19 03:22:15;;;;;;;7.63;6.97;;;21.10;50.70;;;;;;4927273;29;20869;-64
2022/12/19 03:24:44;;;;;;;7.17;6.57;;;21.10;50.70;;;;;;4936039;29;20450;-64
2022/12/19 03:27:19;;;;;;;6.23;5.70;;;21.10;50.70;;;;;;4927267;29;20979;-64
2022/12/19 03:29:53;;;;;;;7.50;6.80;;;21.10;50.70;;;;;;4934506;29;20464;-65
2022/12/19 03:32:26;;;;;;;6.10;5.60;;;21.10;50.70;;;;;;4932011;29;20473;-65
2022/12/19 03:34:58;;;;;;;7.93;7.13;;;21.10;50.70;;;;;;4937644;29;20459;-64
2022/12/19 03:37:33;;;;;;;8.43;6.53;;;21.10;50.70;;;;;;4936408;29;20554;-65
2022/12/19 03:40:08;;;;;;;7.10;6.40;;;21.10;50.70;;;;;;4933024;29;20486;-65
2022/12/19 03:45:31;;;;;;;7.17;6.57;;;21.10;50.70;;;;;;4932191;29;20465;-64
2022/12/19 03:48:09;;;;;;;6.43;5.83;;;21.10;50.70;;;;;;4931535;29;20546;-64
2022/12/19 03:50:46;;;;;;;5.83;5.33;;;21.10;50.80;;;;;;4931949;29;20939;-64
2022/12/19 03:53:28;;;;;;;6.90;6.30;;;21.10;50.80;;;;;;4927546;29;20483;-64
2022/12/19 03:56:03;;;;;;;6.90;6.30;;;21.10;50.80;;;;;;4930370;29;20560;-65
2022/12/19 03:58:35;;;;;;;8.20;7.40;;;21.10;50.80;;;;;;4930500;29;20836;-64
2022/12/19 04:01:04;;;;;;;7.47;6.37;;;21.10;50.80;;;;;;4931634;29;20535;-64
2022/12/19 04:03:34;;;;;;;6.57;5.97;;;21.10;50.80;;;;;;4932877;29;20478;-64
2022/12/19 04:06:04;;;;;;;6.87;6.27;;;21.10;50.80;;;;;;4935469;29;20727;-64
2022/12/19 04:08:33;;;;;;;6.97;6.37;;;21.10;50.80;;;;;;4931712;29;20872;-64
2022/12/19 04:11:06;;;;;;;6.50;5.93;;;21.10;50.80;;;;;;4923952;29;20875;-65
2022/12/19 04:13:38;;;;;;;6.90;6.20;;;21.10;50.80;;;;;;4930111;29;20930;-64
2022/12/19 04:16:14;;;;;;;8.50;7.17;;;21.10;50.80;;;;;;4929546;29;20493;-64
2022/12/19 04:18:51;;;;;;;6.63;6.07;;;21.10;50.80;;;;;;4934909;29;20450;-64
2022/12/19 04:21:23;;;;;;;7.57;6.67;;;21.10;50.80;;;;;;4926861;29;20546;-64
2022/12/19 04:23:57;;;;;;;7.10;6.40;;;21.10;50.80;;;;;;4934721;29;20455;-65
2022/12/19 04:26:26;;;;;;;6.50;6.00;;;21.10;50.90;;;;;;4930374;29;20534;-64
2022/12/19 04:28:58;;;;;;;5.50;5.00;;;21.20;51.00;;;;;;4925650;29;20494;-64
2022/12/19 04:31:26;;;;;;;6.37;5.77;;;21.10;51.00;;;;;;4934892;29;20456;-63
2022/12/19 04:33:56;;;;;;;6.77;6.27;;;21.20;51.10;;;;;;4925059;29;20463;-63
2022/12/19 04:36:25;;;;;;;6.90;6.27;;;21.10;51.10;;;;;;4934302;29;20474;-64
2022/12/19 04:38:53;;;;;;;6.53;5.93;;;21.10;51.10;;;;;;4931628;29;20460;-64
2022/12/19 04:41:21;;;;;;;6.00;5.50;;;21.20;51.10;;;;;;4934409;29;20479;-65
2022/12/19 04:43:50;;;;;;;7.10;6.50;;;21.20;51.20;;;;;;4931137;29;20461;-64
2022/12/19 04:46:18;;;;;;;6.10;5.60;;;21.20;51.10;;;;;;4932879;29;21318;-65
2022/12/19 04:48:46;;;;;;;6.10;5.60;;;21.10;51.10;;;;;;4928815;29;20492;-65
2022/12/19 04:51:15;;;;;;;6.70;6.00;;;21.10;51.10;;;;;;4935257;29;20454;-64
2022/12/19 04:53:44;;;;;;;6.23;5.73;;;21.20;51.20;;;;;;4931625;29;21045;-64
2022/12/19 04:56:12;;;;;;;7.37;6.10;;;21.20;51.10;;;;;;4933113;29;20918;-65
2022/12/19 04:58:40;;;;;;;7.13;6.43;;;21.20;51.10;;;;;;4927495;29;20478;-65
2022/12/19 05:01:08;;;;;;;7.00;6.30;;;21.20;51.10;;;;;;4929638;29;20470;-64
2022/12/19 05:03:37;;;;;;;5.63;5.13;;;21.20;51.20;;;;;;4928789;29;20506;-65
2022/12/19 05:06:07;;;;;;;6.73;6.13;;;21.10;51.20;;;;;;4929128;29;20447;-64
2022/12/19 05:08:37;;;;;;;7.30;6.63;;;21.20;51.20;;;;;;4931195;29;20473;-64
2022/12/19 05:11:07;;;;;;;6.47;5.87;;;21.20;51.10;;;;;;4926888;29;20851;-64
2022/12/19 05:13:35;;;;;;;5.97;5.37;;;21.20;51.10;;;;;;4931466;29;20459;-64
2022/12/19 05:16:06;;;;;;;6.80;6.20;;;21.20;51.20;;;;;;4931893;29;20459;-64
2022/12/19 05:18:35;;;;;;;6.27;5.70;;;21.20;51.20;;;;;;4930732;29;20528;-64
2022/12/19 05:21:04;;;;;;;6.90;6.30;;;21.20;51.20;;;;;;4924129;29;20530;-64
2022/12/19 05:23:32;;;;;;;6.90;6.20;;;21.20;51.20;;;;;;4931095;29;20458;-65
2022/12/19 05:26:03;;;;;;;6.80;6.10;;;21.20;51.20;;;;;;4928083;29;20482;-65
2022/12/19 05:28:32;;;;;;;6.23;5.67;;;21.20;51.30;;;;;;4927883;29;20572;-64
2022/12/19 05:31:05;;;;;;;6.37;5.87;;;21.20;51.30;;;;;;4923898;29;20464;-65
2022/12/19 05:33:33;;;;;;;6.43;5.87;;;21.20;51.30;;;;;;4933985;29;20538;-64
2022/12/19 05:36:02;;;;;;;6.00;5.50;;;21.20;51.30;;;;;;4932009;29;20458;-64
2022/12/19 05:38:30;;;;;;;6.57;5.97;;;21.20;51.30;;;;;;4933540;29;20462;-65
2022/12/19 05:40:58;;;;;;;6.47;5.83;;;21.20;51.30;;;;;;4928776;29;20505;-64
2022/12/19 05:43:28;;;;;;;6.33;5.73;;;21.20;51.30;;;;;;4932997;29;20514;-66
2022/12/19 05:45:56;;;;;;;6.30;5.70;;;21.20;51.20;;;;;;4932127;29;21043;-67
2022/12/19 05:49:01;;;;;;;6.70;6.00;;;21.20;51.20;;;;;;4929478;29;20471;-65
2022/12/19 05:51:54;;;;;;;6.90;6.30;;;21.20;51.20;;;;;;4923635;29;20474;-65
2022/12/19 05:54:22;;;;;;;6.30;5.80;;;21.30;51.10;;;;;;4923280;29;20550;-64
2022/12/19 05:56:50;;;;;;;6.70;6.10;;;21.20;51.20;;;;;;4925840;29;20468;-65
2022/12/19 05:59:20;;;;;;;7.23;6.57;;;21.30;51.10;;;;;;4935737;29;20443;-65
2022/12/19 06:01:48;;;;;;;6.93;6.33;;;21.30;51.10;;;;;;4927421;29;20894;-64
2022/12/19 06:04:16;;;;;;;6.90;6.30;;;21.30;51.00;;;;;;4934952;29;21196;-66
2022/12/19 06:06:44;;;;;;;6.20;5.70;;;21.30;50.90;;;;;;4936685;29;20490;-65
2022/12/19 06:09:12;;;;;;;6.50;6.00;;;21.30;50.90;;;;;;4931218;29;21308;-65
2022/12/19 06:11:40;;;;;;;10.10;7.40;;;21.30;51.00;;;;;;4924815;29;20463;-64
2022/12/19 06:14:09;;;;;;;6.43;5.90;;;21.20;50.90;;;;;;4930568;29;20495;-65
2022/12/19 06:16:38;;;;;;;9.10;6.53;;;21.20;51.00;;;;;;4931151;29;20465;-67
2022/12/19 06:19:06;;;;;;;8.50;6.50;;;21.20;51.20;;;;;;4933851;29;20460;-64
2022/12/19 06:21:34;;;;;;;7.93;6.30;;;21.20;51.30;;;;;;4931099;29;20459;-65
2022/12/19 06:24:12;;;;;;;8.67;5.73;;;21.20;51.30;;;;;;4930562;29;20511;-65
2022/12/19 06:26:41;;;;;;;6.50;5.90;;;21.20;51.40;;;;;;4929049;29;20448;-65
2022/12/19 06:29:09;;;;;;;6.20;4.93;;;21.20;51.50;;;;;;4937218;29;20562;-65
2022/12/19 06:31:39;;;;;;;7.53;6.20;;;21.10;51.60;;;;;;4933417;29;20448;-64
2022/12/19 06:34:08;;;;;;;6.77;6.17;;;21.10;51.60;;;;;;4930457;29;20524;-65
2022/12/19 06:36:37;;;;;;;6.80;6.03;;;21.20;51.60;;;;;;4930370;29;20784;-67
2022/12/19 06:39:05;;;;;;;7.00;6.37;;;21.10;51.70;;;;;;4932757;29;20949;-65
2022/12/19 06:44:19;;;;;;;9.20;5.87;;;21.20;51.70;;;;;;4921864;29;20797;-64
2022/12/19 06:46:48;;;;;;;6.77;6.10;;;21.20;51.70;;;;;;4927268;29;20460;-65
2022/12/19 06:49:16;;;;;;;7.97;7.00;;;21.20;51.70;;;;;;4929447;29;20608;-64
2022/12/19 06:51:45;;;;;;;8.23;7.10;;;21.20;51.70;;;;;;4927323;29;20482;-65
2022/12/19 06:54:14;;;;;;;7.70;6.93;;;21.20;51.60;;;;;;4927095;29;20450;-65
2022/12/19 06:56:43;;;;;;;7.93;6.30;;;21.20;51.60;;;;;;4933996;29;20795;-65
2022/12/19 06:59:13;;;;;;;10.80;7.20;;;21.20;51.60;;;;;;4929493;29;20473;-64
2022/12/19 07:01:55;;;;;;;11.10;7.63;;;21.20;51.60;;;;;;4929164;29;20973;-64
2022/12/19 07:04:30;;;;;;;8.93;6.23;;;21.20;51.70;;;;;;4930533;29;20475;-64
2022/12/19 07:06:59;;;;;;;11.27;6.50;;;21.20;51.70;;;;;;4931154;29;20453;-64
2022/12/19 07:09:29;;;;;;;12.80;7.43;;;21.20;51.60;;;;;;4926567;29;20484;-65
2022/12/19 07:11:57;;;;;;;8.07;6.90;;;21.20;51.50;;;;;;4928025;29;20474;-64
2022/12/19 07:14:25;;;;;;;11.30;7.30;;;21.30;51.50;;;;;;4931939;29;20553;-65
2022/12/19 07:16:57;;;;;;;11.97;6.97;;;21.30;51.40;;;;;;4932924;29;20466;-65
2022/12/19 07:19:27;;;;;;;7.83;6.20;;;21.30;51.40;;;;;;4930274;29;20474;-68
2022/12/19 07:21:55;;;;;;;10.67;7.60;;;21.30;51.30;;;;;;4925277;29;20451;-65
2022/12/19 07:24:24;;;;;;;8.43;7.00;;;21.30;51.30;;;;;;4931756;29;20929;-66
2022/12/19 07:26:52;;;;;;;8.30;7.50;;;21.30;51.20;;;;;;4924742;29;20600;-65
2022/12/19 07:29:20;;;;;;;9.93;7.30;;;21.30;51.20;;;;;;4931058;29;20483;-65
2022/12/19 07:31:48;;;;;;;9.50;7.00;;;21.30;51.20;;;;;;4931662;29;20474;-64
2022/12/19 07:34:18;;;;;;;7.10;6.20;;;21.30;51.20;;;;;;4925190;29;20459;-65
2022/12/19 07:36:46;;;;;;;9.13;8.10;;;21.30;51.20;;;;;;4929122;29;20811;-65
2022/12/19 07:39:14;;;;;;;9.53;8.00;;;21.30;51.20;;;;;;4928903;29;20452;-65
2022/12/19 07:41:42;;;;;;;8.13;6.30;;;21.20;51.20;;;;;;4918628;29;20500;-65
2022/12/19 07:44:12;;;;;;;8.03;7.27;;;21.20;51.20;;;;;;4922295;29;20494;-65
2022/12/19 07:46:40;;;;;;;9.40;8.10;;;21.20;51.20;;;;;;4919672;29;20574;-67
2022/12/19 07:49:08;;;;;;;7.53;6.37;;;21.20;51.20;;;;;;4914601;29;20981;-66
2022/12/19 07:51:37;;;;;;;8.70;7.00;;;21.20;51.20;;;;;;4918010;29;20988;-65
2022/12/19 07:54:06;;;;;;;7.23;6.50;;;21.20;51.20;;;;;;4918501;29;20478;-64
2022/12/19 07:56:34;;;;;;;7.57;6.77;;;21.20;51.20;;;;;;4919415;29;20495;-66
2022/12/19 07:59:02;;;;;;;8.63;7.00;;;21.30;51.20;;;;;;4917194;29;20538;-64
2022/12/19 08:01:30;;;;;;;8.97;7.20;;;21.30;51.20;;;;;;4919406;29;20820;-64
2022/12/19 08:03:59;;;;;;;9.93;7.17;;;21.30;51.20;;;;;;4922019;29;20471;-65
2022/12/19 08:06:27;;;;;;;7.23;6.40;;;21.30;51.10;;;;;;4920819;29;20499;-65
2022/12/19 08:08:57;;;;;;;7.30;6.40;;;21.30;51.10;;;;;;4916067;29;20468;-65
2022/12/19 08:11:28;;;;;;;7.50;6.80;;;21.30;51.10;;;;;;4917918;29;20897;-65
2022/12/19 08:13:57;;;;;;;7.77;6.80;;;21.30;51.10;;;;;;4918925;29;20468;-65
2022/12/19 08:16:26;;;;;;;8.13;7.00;;;21.30;51.10;;;;;;4918349;29;20459;-64
2022/12/19 08:18:55;;;;;;;7.37;6.70;;;21.40;51.00;;;;;;4921151;29;20460;-65
2022/12/19 08:21:23;;;;;;;8.60;6.83;;;21.40;51.00;;;;;;4915328;29;20464;-65
2022/12/19 08:23:52;;;;;;;6.70;6.07;;;21.40;51.00;;;;;;4925131;29;20464;-64
2022/12/19 08:26:24;;;;;;;10.07;7.63;;;21.40;51.40;;;;;;4926133;29;20459;-65
2022/12/19 08:28:53;;;;;;;7.80;6.73;;;21.40;51.70;;;;;;4925863;29;20458;-64
2022/12/19 08:31:23;;;;;;;9.60;7.23;;;21.40;51.80;;;;;;4928933;29;20981;-64
2022/12/19 08:33:52;;;;;;;8.17;7.37;;;21.40;52.00;;;;;;4927044;29;20455;-65
2022/12/19 08:36:21;;;;;;;8.87;7.93;;;21.40;52.00;;;;;;4929629;29;20484;-64
2022/12/19 08:38:50;;;;;;;9.70;8.13;;;21.40;52.00;;;;;;4932313;29;20466;-65
2022/12/19 08:41:20;;;;;;;12.17;7.20;;;21.40;51.90;;;;;;4927857;29;20562;-64
2022/12/19 08:43:52;;;;;;;8.90;7.43;;;21.40;51.80;;;;;;4933017;29;20937;-64
2022/12/19 08:46:21;;;;;;;8.53;7.40;;;21.40;51.70;;;;;;4925961;29;20500;-65
2022/12/19 08:48:49;;;;;;;10.07;7.97;;;21.40;51.60;;;;;;4930618;29;20451;-64
2022/12/19 08:51:18;;;;;;;9.83;7.83;;;21.40;51.40;;;;;;4931032;29;20560;-64
2022/12/19 08:53:47;;;;;;;8.47;7.30;;;21.50;51.30;;;;;;4932699;29;20479;-64
2022/12/19 08:56:17;;;;;;;9.87;8.87;;;21.50;51.20;;;;;;4932893;29;20527;-68
2022/12/19 08:58:46;;;;;;;9.60;8.60;;;21.50;51.10;;;;;;4930525;29;21316;-66
2022/12/19 09:01:18;;;;;;;8.87;7.97;;;21.50;51.00;;;;;;4928147;29;20498;-64
2022/12/19 09:03:47;;;;;;;9.27;8.03;;;21.50;50.90;;;;;;4930580;29;20480;-64
2022/12/19 09:06:35;;;;;;;8.80;7.90;;;21.60;50.80;;;;;;4933969;29;20464;-63
2022/12/19 09:09:04;;;;;;;9.90;8.73;;;21.60;50.60;;;;;;4933556;29;20472;-64
2022/12/19 09:11:32;;;;;;;9.20;8.03;;;21.60;50.40;;;;;;4933587;29;21062;-64
2022/12/19 09:14:03;;;;;;;11.43;8.10;;;21.60;50.30;;;;;;4926907;29;20461;-64
2022/12/19 09:16:33;;;;;;;10.30;9.30;;;21.60;50.30;;;;;;4930241;29;20520;-65
2022/12/19 09:19:01;;;;;;;8.60;7.70;;;21.60;50.20;;;;;;4921656;29;20469;-64
2022/12/19 09:21:29;;;;;;;9.43;8.63;;;21.70;50.30;;;;;;4929538;29;20913;-66
2022/12/19 09:24:00;;;;;;;8.93;8.10;;;21.70;50.50;;;;;;4932195;29;20455;-67
2022/12/19 09:26:36;;;;;;;8.03;7.33;;;21.80;50.50;;;;;;4932249;29;20531;-66
2022/12/19 09:29:04;;;;;;;8.47;7.67;;;21.90;50.60;;;;;;4930163;29;20463;-68
2022/12/19 09:31:50;;;;;;;7.63;6.83;;;21.90;50.60;;;;;;4928384;29;20829;-64
2022/12/19 09:34:24;;;;;;;10.53;8.37;;;22.00;50.70;;;;;;4932232;29;21330;-63
2022/12/19 09:37:04;;;;;;;8.53;7.00;;;22.00;50.60;;;;;;4932209;29;20471;-67
2022/12/19 09:39:33;;;;;;;7.43;6.73;;;22.00;50.70;;;;;;4932797;29;20458;-64
2022/12/19 09:42:13;;;;;;;7.67;7.00;;;22.00;50.70;;;;;;4929674;29;20508;-64
2022/12/19 09:44:57;;;;;;;9.20;8.30;;;22.00;50.80;;;;;;4924779;29;20611;-70
2022/12/19 09:47:29;;;;;;;8.60;7.40;;;22.10;50.80;;;;;;4924818;29;20504;-67
2022/12/19 09:49:58;;;;;;;10.03;8.30;;;22.00;50.60;;;;;;4913850;29;20561;-63
2022/12/19 09:52:32;;;;;;;9.33;8.40;;;22.00;50.00;;;;;;4892240;29;20531;-63
2022/12/19 09:55:05;;;;;;;7.90;7.10;;;22.00;49.90;;;;;;4889930;29;20906;-64
2022/12/19 09:57:40;;;;;;;8.23;7.53;;;22.00;50.30;;;;;;4890321;29;21099;-64
2022/12/19 10:00:13;;;;;;;9.57;8.67;;;22.00;50.50;;;;;;4887496;29;21049;-64
2022/12/19 10:02:48;;;;;;;9.47;7.37;;;22.00;50.70;;;;;;4893883;29;20807;-65
2022/12/19 10:05:31;;;;;;;9.10;7.37;;;22.10;50.80;;;;;;4891070;29;20458;-65
2022/12/19 10:08:23;;;;;;;7.77;6.97;;;22.10;50.90;;;;;;4893092;29;20461;-63
2022/12/19 10:11:04;;;;;;;8.57;7.80;;;22.10;50.90;;;;;;4889864;29;20578;-63
2022/12/19 10:14:09;;;;;;;9.40;7.10;;;22.20;50.90;;;;;;4886558;29;20466;-65
2022/12/19 10:16:51;;;;;;;8.80;7.90;;;22.20;51.00;;;;;;4892615;29;20826;-64
2022/12/19 10:19:49;;;;;;;7.67;6.87;;;22.30;51.00;;;;;;4888211;29;20923;-63
2022/12/19 10:22:24;;;;;;;7.87;7.17;;;22.30;51.00;;;;;;4893732;29;20456;-64
2022/12/19 10:25:11;;;;;;;7.33;6.70;;;22.40;51.00;;;;;;4895007;29;20481;-65
2022/12/19 10:27:47;;;;;;;7.87;7.10;;;22.40;51.10;;;;;;4891245;29;20472;-64
2022/12/19 10:30:29;;;;;;;6.93;6.10;;;22.50;51.00;;;;;;4900927;29;20473;-64
2022/12/19 10:33:07;;;;;;;7.50;6.70;;;22.50;51.00;;;;;;4897700;29;20478;-65
2022/12/19 10:35:48;;;;;;;7.50;6.83;;;22.60;51.00;;;;;;4897400;29;20485;-65
2022/12/19 10:38:24;;;;;;;7.80;7.10;;;22.70;50.80;;;;;;4894350;29;20948;-64
2022/12/19 10:40:56;;;;;;;7.10;6.40;;;22.70;50.80;;;;;;4887638;29;21008;-63
2022/12/19 10:43:34;;;;;;;8.10;7.30;;;22.80;50.80;;;;;;4895911;29;20530;-67
2022/12/19 10:46:17;;;;;;;7.00;6.40;;;22.80;50.80;;;;;;4898826;29;20459;-64
2022/12/19 10:48:45;;;;;;;8.30;7.50;;;22.80;50.80;;;;;;4898344;29;20451;-65
2022/12/19 10:51:22;;;;;;;8.20;6.43;;;22.80;50.70;;;;;;4894688;29;20470;-64
2022/12/19 10:53:54;;;;;;;7.17;6.57;;;22.80;50.80;;;;;;4891337;29;20453;-64
2022/12/19 10:56:24;;;;;;;8.03;7.30;;;22.80;50.80;;;;;;4893878;29;20455;-67
2022/12/19 10:58:56;;;;;;;7.53;6.83;;;22.80;50.90;;;;;;4897657;29;20442;-64
2022/12/19 11:01:29;;;;;;;7.33;6.57;;;22.70;51.00;;;;;;4898128;29;21236;-64
2022/12/19 11:04:28;;;;;;;8.10;6.70;;;22.70;51.10;;;;;;4892798;29;20550;-63
2022/12/19 11:07:19;;;;;;;7.73;7.10;;;22.60;51.20;;;;;;4897020;29;20931;-67
2022/12/19 11:09:47;;;;;;;6.73;6.17;;;22.60;51.20;;;;;;4899241;29;20462;-64
2022/12/19 11:12:35;;;;;;;7.67;6.97;;;22.60;51.10;;;;;;4897294;29;20485;-64
2022/12/19 11:15:23;;;;;;;8.47;7.67;;;22.50;50.80;;;;;;4898211;29;20462;-64
2022/12/19 11:18:13;;;;;;;8.43;7.63;;;22.40;50.70;;;;;;4897504;29;20481;-65
2022/12/19 11:21:03;;;;;;;8.10;7.40;;;22.40;50.70;;;;;;4896352;29;20469;-64
2022/12/19 11:23:56;;;;;;;8.10;7.40;;;22.40;50.70;;;;;;4896605;29;20462;-66
2022/12/19 11:26:46;;;;;;;8.80;8.00;;;22.30;50.80;;;;;;4894249;29;20531;-65
2022/12/19 11:29:44;;;;;;;7.67;6.97;;;22.30;50.80;;;;;;4895653;29;20779;-64
2022/12/19 11:32:35;;;;;;;7.63;6.97;;;22.30;50.90;;;;;;4895845;29;20482;-66
2022/12/19 11:35:19;;;;;;;7.00;6.40;;;22.40;50.90;;;;;;4893158;29;20446;-64
2022/12/19 11:37:55;;;;;;;8.70;7.87;;;22.40;50.90;;;;;;4896664;29;20849;-64
2022/12/19 11:40:33;;;;;;;8.00;7.07;;;22.50;50.80;;;;;;4887403;29;20493;-64
2022/12/19 11:43:07;;;;;;;7.43;6.80;;;22.60;50.80;;;;;;4893978;29;20961;-67
2022/12/19 11:46:02;;;;;;;8.47;7.67;;;22.60;50.60;;;;;;4896333;29;20458;-65
2022/12/19 11:48:39;;;;;;;8.00;7.30;;;22.70;50.40;;;;;;4894189;29;20554;-65
2022/12/19 11:51:18;;;;;;;8.30;7.60;;;22.70;50.30;;;;;;4894870;29;20482;-65
2022/12/19 11:53:52;;;;;;;7.50;6.87;;;22.80;50.20;;;;;;4896488;29;20454;-66
2022/12/19 11:56:26;;;;;;;7.30;6.60;;;22.80;50.10;;;;;;4890836;29;20499;-65
2022/12/19 11:58:58;;;;;;;8.10;7.40;;;22.80;49.90;;;;;;4893537;29;20446;-64
2022/12/19 12:01:43;;;;;;;7.23;6.70;;;22.90;49.80;;;;;;4901043;29;20513;-65
2022/12/19 12:04:34;;;;;;;7.80;7.07;;;22.90;49.80;;;;;;4885163;29;20460;-65
2022/12/19 12:07:05;;;;;;;8.10;7.40;;;23.00;49.70;;;;;;4891581;29;20459;-65
2022/12/19 12:10:01;;;;;;;8.37;7.60;;;23.00;49.50;;;;;;4891090;29;20469;-64
2022/12/19 12:13:02;;;;;;;7.80;7.10;;;23.00;49.60;;;;;;4889812;29;20479;-64
2022/12/19 12:15:56;;;;;;;7.43;6.80;;;23.00;49.80;;;;;;4889203;29;20459;-65
2022/12/19 12:18:59;;;;;;;7.90;7.27;;;22.90;49.70;;;;;;4890433;29;20467;-65
2022/12/19 12:21:57;;;;;;;7.07;6.47;;;22.90;49.60;;;;;;4894148;29;20457;-64
2022/12/19 12:24:55;;;;;;;7.97;7.17;;;22.90;49.70;;;;;;4886914;29;20459;-65
2022/12/19 12:27:53;;;;;;;7.20;6.60;;;22.80;49.70;;;;;;4896694;29;20460;-66
2022/12/19 12:30:52;;;;;;;7.50;6.67;;;22.80;50.00;;;;;;4895476;29;20454;-65
2022/12/19 12:33:58;;;;;;;7.93;7.23;;;22.70;50.20;;;;;;4890299;29;20943;-66
2022/12/19 12:36:56;;;;;;;8.73;7.40;;;22.70;50.30;;;;;;4889015;29;20463;-65
2022/12/19 12:39:55;;;;;;;6.77;6.07;;;22.70;50.30;;;;;;4887672;29;20476;-67
2022/12/19 12:42:42;;;;;;;7.63;7.03;;;22.70;50.50;;;;;;4887946;29;20487;-64
2022/12/19 12:45:20;;;;;;;7.87;7.10;;;22.70;50.50;;;;;;4882663;29;20456;-66
2022/12/19 12:47:52;;;;;;;7.53;6.83;;;22.70;50.50;;;;;;4884969;29;20832;-64
2022/12/19 12:50:23;;;;;;;7.20;6.60;;;22.70;50.40;;;;;;4884170;29;20873;-66
2022/12/19 12:52:54;;;;;;;7.20;6.60;;;22.60;50.50;;;;;;4888616;29;20470;-65
2022/12/19 12:55:28;;;;;;;7.30;6.70;;;22.60;50.40;;;;;;4889277;29;20461;-65
2022/12/19 12:57:57;;;;;;;7.70;7.00;;;22.60;50.40;;;;;;4886416;29;20801;-64
2022/12/19 13:00:28;;;;;;;6.93;6.33;;;22.70;50.50;;;;;;4894803;29;20472;-65
2022/12/19 13:03:05;;;;;;;6.40;5.77;;;22.70;50.20;;;;;;4889716;29;20528;-64
2022/12/19 13:05:49;;;;;;;6.77;6.17;;;22.80;50.30;;;;;;4887243;29;21137;-63
2022/12/19 13:08:38;;;;;;;6.90;6.23;;;22.90;50.40;;;;;;4884935;29;20873;-65
2022/12/19 13:12:58;;;;;;;6.77;5.97;;;23.00;50.50;;;;;;4887038;29;20551;-63
2022/12/19 13:14:01;;;;;;;7.53;6.87;;;23.10;50.60;;;;;;4894590;29;20446;-62
2022/12/19 13:16:57;;;;;;;6.30;5.80;;;23.10;50.70;;;;;;4893904;29;20468;-62
2022/12/19 13:19:28;;;;;;;6.03;5.53;;;23.10;51.00;;;;;;4871666;29;20487;-63
2022/12/19 13:22:30;;;;;;;6.17;5.67;;;23.10;51.10;;;;;;4891053;29;20454;-63
2022/12/19 13:24:59;;;;;;;6.87;6.17;;;23.10;51.10;;;;;;4886294;29;21021;-63
2022/12/19 13:27:37;;;;;;;7.30;5.77;;;23.10;51.30;;;;;;4894152;29;20460;-63
2022/12/19 13:30:16;;;;;;;7.33;6.13;;;23.10;51.40;;;;;;4887605;29;20461;-63
2022/12/19 13:33:06;;;;;;;6.20;5.60;;;23.10;51.60;;;;;;4885743;29;20554;-62